sensor_id;sensor_type;location;lat;lon;timestamp;pressure;altitude;pressure_sealevel;temperature;humidity
73280;BME280;61511;49.286;9.700;2022-08-19T00:01:46;96843.28;;;19.49;68.40
73280;BME280;61511;49.286;9.700;2022-08-19T00:04:21;96839.06;;;19.48;68.19
73280;BME280;61511;49.286;9.700;2022-08-19T00:06:52;96838.25;;;19.47;68.78
73280;BME280;61511;49.286;9.700;2022-08-19T00:09:21;96832.59;;;19.49;68.27
73280;BME280;61511;49.286;9.700;2022-08-19T00:11:52;96832.28;;;19.50;68.65
73280;BME280;61511;49.286;9.700;2022-08-19T00:14:22;96842.31;;;19.53;68.03
73280;BME280;61511;49.286;9.700;2022-08-19T00:16:52;96836.97;;;19.53;68.18
73280;BME280;61511;49.286;9.700;2022-08-19T00:19:22;96837.63;;;19.50;68.30
73280;BME280;61511;49.286;9.700;2022-08-19T00:21:52;96837.94;;;19.49;68.32
73280;BME280;61511;49.286;9.700;2022-08-19T00:24:22;96838.25;;;19.47;68.73
73280;BME280;61511;49.286;9.700;2022-08-19T00:26:50;96846.91;;;19.44;68.82
73280;BME280;61511;49.286;9.700;2022-08-19T00:29:20;96851.19;;;19.45;68.74
73280;BME280;61511;49.286;9.700;2022-08-19T00:31:49;96849.75;;;19.48;68.71
73280;BME280;61511;49.286;9.700;2022-08-19T00:34:19;96854.31;;;19.47;68.68
73280;BME280;61511;49.286;9.700;2022-08-19T00:36:47;96859.84;;;19.51;69.03
73280;BME280;61511;49.286;9.700;2022-08-19T00:39:17;96869.09;;;19.53;68.72
73280;BME280;61511;49.286;9.700;2022-08-19T00:41:46;96858.38;;;19.53;68.26
73280;BME280;61511;49.286;9.700;2022-08-19T00:44:18;96845.47;;;19.55;68.28
73280;BME280;61511;49.286;9.700;2022-08-19T00:46:53;96850.81;;;19.55;68.38
73280;BME280;61511;49.286;9.700;2022-08-19T00:49:28;96852.41;;;19.56;67.88
73280;BME280;61511;49.286;9.700;2022-08-19T00:52:00;96858.19;;;19.58;67.96
73280;BME280;61511;49.286;9.700;2022-08-19T00:54:31;96851.72;;;19.59;67.76
73280;BME280;61511;49.286;9.700;2022-08-19T00:57:01;96843.38;;;19.61;68.00
73280;BME280;61511;49.286;9.700;2022-08-19T00:59:30;96821.97;;;19.61;67.22
73280;BME280;61511;49.286;9.700;2022-08-19T01:02:18;96823.84;;;19.60;67.26
73280;BME280;61511;49.286;9.700;2022-08-19T01:04:46;96829.53;;;19.59;67.57
73280;BME280;61511;49.286;9.700;2022-08-19T01:07:14;96826.38;;;19.57;67.34
73280;BME280;61511;49.286;9.700;2022-08-19T01:09:46;96825.94;;;19.55;67.95
73280;BME280;61511;49.286;9.700;2022-08-19T01:12:15;96839.84;;;19.48;67.69
73280;BME280;61511;49.286;9.700;2022-08-19T01:14:44;96851.00;;;19.50;67.33
73280;BME280;61511;49.286;9.700;2022-08-19T01:17:13;96854.47;;;19.51;67.98
73280;BME280;61511;49.286;9.700;2022-08-19T01:19:43;96854.47;;;19.51;67.62
73280;BME280;61511;49.286;9.700;2022-08-19T01:22:16;96867.22;;;19.45;67.61
73280;BME280;61511;49.286;9.700;2022-08-19T01:24:57;96864.56;;;19.45;67.45
73280;BME280;61511;49.286;9.700;2022-08-19T01:27:25;96875.41;;;19.40;67.88
73280;BME280;61511;49.286;9.700;2022-08-19T01:30:06;96873.72;;;19.36;67.82
73280;BME280;61511;49.286;9.700;2022-08-19T01:32:34;96859.56;;;19.35;68.09
73280;BME280;61511;49.286;9.700;2022-08-19T01:35:03;96857.34;;;19.37;67.92
73280;BME280;61511;49.286;9.700;2022-08-19T01:37:42;96859.88;;;19.34;68.50
73280;BME280;61511;49.286;9.700;2022-08-19T01:40:12;96852.50;;;19.31;68.10
73280;BME280;61511;49.286;9.700;2022-08-19T01:42:40;96854.25;;;19.26;68.17
73280;BME280;61511;49.286;9.700;2022-08-19T01:45:09;96856.34;;;19.21;68.36
73280;BME280;61511;49.286;9.700;2022-08-19T01:47:38;96852.72;;;19.17;68.76
73280;BME280;61511;49.286;9.700;2022-08-19T01:50:08;96845.34;;;19.14;68.80
73280;BME280;61511;49.286;9.700;2022-08-19T01:52:38;96844.88;;;19.12;68.90
73280;BME280;61511;49.286;9.700;2022-08-19T01:55:08;96846.16;;;19.06;69.46
73280;BME280;61511;49.286;9.700;2022-08-19T01:57:41;96845.09;;;18.98;69.18
73280;BME280;61511;49.286;9.700;2022-08-19T02:00:13;96847.00;;;18.98;69.47
73280;BME280;61511;49.286;9.700;2022-08-19T02:02:42;96848.72;;;18.94;69.73
73280;BME280;61511;49.286;9.700;2022-08-19T02:05:11;96851.72;;;18.92;69.60
73280;BME280;61511;49.286;9.700;2022-08-19T02:07:40;96862.44;;;18.92;70.19
73280;BME280;61511;49.286;9.700;2022-08-19T02:10:12;96859.41;;;18.94;69.32
73280;BME280;61511;49.286;9.700;2022-08-19T02:12:44;96857.22;;;18.96;69.43
73280;BME280;61511;49.286;9.700;2022-08-19T02:15:13;96854.72;;;18.91;69.06
73280;BME280;61511;49.286;9.700;2022-08-19T02:17:41;96854.06;;;18.94;69.86
73280;BME280;61511;49.286;9.700;2022-08-19T02:20:11;96859.75;;;18.92;69.11
73280;BME280;61511;49.286;9.700;2022-08-19T02:22:40;96863.53;;;18.91;68.86
73280;BME280;61511;49.286;9.700;2022-08-19T02:25:09;96858.00;;;18.87;69.51
73280;BME280;61511;49.286;9.700;2022-08-19T02:27:38;96862.25;;;18.88;70.09
73280;BME280;61511;49.286;9.700;2022-08-19T02:30:16;96858.81;;;18.88;70.30
73280;BME280;61511;49.286;9.700;2022-08-19T02:32:45;96865.25;;;18.87;69.31
73280;BME280;61511;49.286;9.700;2022-08-19T02:35:14;96863.09;;;18.80;69.66
73280;BME280;61511;49.286;9.700;2022-08-19T02:37:42;96873.31;;;18.78;69.91
73280;BME280;61511;49.286;9.700;2022-08-19T02:40:28;96883.34;;;18.81;69.39
73280;BME280;61511;49.286;9.700;2022-08-19T02:42:56;96887.94;;;18.81;69.51
73280;BME280;61511;49.286;9.700;2022-08-19T02:45:25;96882.25;;;18.82;69.26
73280;BME280;61511;49.286;9.700;2022-08-19T02:47:53;96879.75;;;18.77;70.21
73280;BME280;61511;49.286;9.700;2022-08-19T02:50:23;96881.19;;;18.75;70.58
73280;BME280;61511;49.286;9.700;2022-08-19T02:52:52;96879.63;;;18.74;70.00
73280;BME280;61511;49.286;9.700;2022-08-19T02:55:20;96883.53;;;18.76;69.78
73280;BME280;61511;49.286;9.700;2022-08-19T02:57:48;96870.81;;;18.73;69.92
73280;BME280;61511;49.286;9.700;2022-08-19T03:00:16;96870.50;;;18.75;70.40
73280;BME280;61511;49.286;9.700;2022-08-19T03:02:46;96866.56;;;18.72;69.37
73280;BME280;61511;49.286;9.700;2022-08-19T03:05:15;96867.97;;;18.70;69.95
73280;BME280;61511;49.286;9.700;2022-08-19T03:07:50;96870.97;;;18.68;70.53
73280;BME280;61511;49.286;9.700;2022-08-19T03:10:18;96868.31;;;18.68;69.53
73280;BME280;61511;49.286;9.700;2022-08-19T03:12:46;96868.63;;;18.67;69.66
73280;BME280;61511;49.286;9.700;2022-08-19T03:15:15;96864.69;;;18.64;70.19
73280;BME280;61511;49.286;9.700;2022-08-19T03:17:42;96868.47;;;18.63;70.54
73280;BME280;61511;49.286;9.700;2022-08-19T03:20:12;96869.59;;;18.62;70.68
73280;BME280;61511;49.286;9.700;2022-08-19T03:22:40;96876.34;;;18.60;70.26
73280;BME280;61511;49.286;9.700;2022-08-19T03:25:09;96872.44;;;18.57;70.51
73280;BME280;61511;49.286;9.700;2022-08-19T03:27:38;96869.28;;;18.55;70.71
73280;BME280;61511;49.286;9.700;2022-08-19T03:30:07;96871.94;;;18.55;69.78
73280;BME280;61511;49.286;9.700;2022-08-19T03:32:37;96873.66;;;18.51;70.17
73280;BME280;61511;49.286;9.700;2022-08-19T03:35:12;96880.56;;;18.52;70.22
73280;BME280;61511;49.286;9.700;2022-08-19T03:37:40;96874.91;;;18.54;69.98
73280;BME280;61511;49.286;9.700;2022-08-19T03:40:08;96873.31;;;18.53;70.19
73280;BME280;61511;49.286;9.700;2022-08-19T03:42:42;96865.63;;;18.51;71.13
73280;BME280;61511;49.286;9.700;2022-08-19T03:45:15;96867.97;;;18.53;70.53
73280;BME280;61511;49.286;9.700;2022-08-19T03:47:43;96848.03;;;18.50;71.36
73280;BME280;61511;49.286;9.700;2022-08-19T03:50:15;96852.13;;;18.47;71.29
73280;BME280;61511;49.286;9.700;2022-08-19T03:52:48;96851.66;;;18.45;70.79
73280;BME280;61511;49.286;9.700;2022-08-19T03:55:17;96839.22;;;18.41;71.00
73280;BME280;61511;49.286;9.700;2022-08-19T03:57:45;96848.50;;;18.43;71.68
73280;BME280;61511;49.286;9.700;2022-08-19T04:00:15;96853.06;;;18.43;71.36
73280;BME280;61511;49.286;9.700;2022-08-19T04:02:44;96846.16;;;18.42;70.82
73280;BME280;61511;49.286;9.700;2022-08-19T04:05:28;96859.06;;;18.40;70.90
73280;BME280;61511;49.286;9.700;2022-08-19T04:07:56;96865.16;;;18.40;71.56
73280;BME280;61511;49.286;9.700;2022-08-19T04:10:26;96859.69;;;18.37;71.67
73280;BME280;61511;49.286;9.700;2022-08-19T04:12:54;96867.06;;;18.40;70.78
73280;BME280;61511;49.286;9.700;2022-08-19T04:15:22;96871.28;;;18.41;71.08
73280;BME280;61511;49.286;9.700;2022-08-19T04:17:50;96881.53;;;18.39;71.81
73280;BME280;61511;49.286;9.700;2022-08-19T04:20:18;96886.88;;;18.39;72.11
73280;BME280;61511;49.286;9.700;2022-08-19T04:22:47;96887.97;;;18.38;72.00
73280;BME280;61511;49.286;9.700;2022-08-19T04:25:16;96881.53;;;18.39;72.12
73280;BME280;61511;49.286;9.700;2022-08-19T04:27:43;96881.53;;;18.39;71.23
73280;BME280;61511;49.286;9.700;2022-08-19T04:30:13;96888.75;;;18.38;71.93
73280;BME280;61511;49.286;9.700;2022-08-19T04:32:41;96882.31;;;18.39;72.24
73280;BME280;61511;49.286;9.700;2022-08-19T04:35:10;96889.56;;;18.39;71.19
73280;BME280;61511;49.286;9.700;2022-08-19T04:37:45;96885.91;;;18.35;70.99
73280;BME280;61511;49.286;9.700;2022-08-19T04:40:14;96881.53;;;18.39;71.94
73280;BME280;61511;49.286;9.700;2022-08-19T04:43:00;96882.47;;;18.43;71.03
73280;BME280;61511;49.286;9.700;2022-08-19T04:45:28;96872.25;;;18.45;71.38
73280;BME280;61511;49.286;9.700;2022-08-19T04:48:09;96863.13;;;18.46;70.74
73280;BME280;61511;49.286;9.700;2022-08-19T04:50:54;96865.03;;;18.45;72.12
73280;BME280;61511;49.286;9.700;2022-08-19T04:53:25;96863.13;;;18.46;71.91
73280;BME280;61511;49.286;9.700;2022-08-19T04:56:07;96876.94;;;18.48;71.05
73280;BME280;61511;49.286;9.700;2022-08-19T04:58:36;96877.13;;;18.52;71.81
73280;BME280;61511;49.286;9.700;2022-08-19T05:01:04;96881.69;;;18.51;70.93
73280;BME280;61511;49.286;9.700;2022-08-19T05:03:33;96888.91;;;18.51;71.75
73280;BME280;61511;49.286;9.700;2022-08-19T05:06:04;96887.47;;;18.53;71.59
73280;BME280;61511;49.286;9.700;2022-08-19T05:08:35;96894.13;;;18.56;71.55
73280;BME280;61511;49.286;9.700;2022-08-19T05:11:09;96893.81;;;18.57;70.42
73280;BME280;61511;49.286;9.700;2022-08-19T05:13:39;96893.34;;;18.55;70.95
73280;BME280;61511;49.286;9.700;2022-08-19T05:16:09;96898.03;;;18.58;71.80
73280;BME280;61511;49.286;9.700;2022-08-19T05:18:37;96887.34;;;18.58;71.79
73280;BME280;61511;49.286;9.700;2022-08-19T05:21:24;96895.84;;;18.60;71.75
73280;BME280;61511;49.286;9.700;2022-08-19T05:24:10;96903.53;;;18.62;71.15
73280;BME280;61511;49.286;9.700;2022-08-19T05:26:42;96909.81;;;18.66;71.71
73280;BME280;61511;49.286;9.700;2022-08-19T05:29:13;96913.28;;;18.66;70.74
73280;BME280;61511;49.286;9.700;2022-08-19T05:31:42;96924.13;;;18.70;70.94
73280;BME280;61511;49.286;9.700;2022-08-19T05:34:11;96926.97;;;18.73;70.43
73280;BME280;61511;49.286;9.700;2022-08-19T05:36:46;96928.06;;;18.72;70.40
73280;BME280;61511;49.286;9.700;2022-08-19T05:39:16;96926.97;;;18.73;70.98
73280;BME280;61511;49.286;9.700;2022-08-19T05:41:47;96936.06;;;18.72;71.30
73280;BME280;61511;49.286;9.700;2022-08-19T05:44:16;96948.34;;;18.73;70.49
73280;BME280;61511;49.286;9.700;2022-08-19T05:46:44;96948.66;;;18.72;71.16
73280;BME280;61511;49.286;9.700;2022-08-19T05:49:15;96949.28;;;18.77;71.22
73280;BME280;61511;49.286;9.700;2022-08-19T05:51:43;96950.69;;;18.83;71.11
73280;BME280;61511;49.286;9.700;2022-08-19T05:54:11;96951.63;;;18.87;70.53
73280;BME280;61511;49.286;9.700;2022-08-19T05:56:40;96964.38;;;18.91;71.12
73280;BME280;61511;49.286;9.700;2022-08-19T05:59:10;96953.19;;;18.88;70.59
73280;BME280;61511;49.286;9.700;2022-08-19T06:01:41;96960.59;;;18.92;70.63
73280;BME280;61511;49.286;9.700;2022-08-19T06:04:09;96970.34;;;18.96;70.28
73280;BME280;61511;49.286;9.700;2022-08-19T06:06:37;96965.13;;;19.00;70.06
73280;BME280;61511;49.286;9.700;2022-08-19T06:09:07;96971.88;;;19.06;69.80
73280;BME280;61511;49.286;9.700;2022-08-19T06:11:38;96965.13;;;19.08;69.69
73280;BME280;61511;49.286;9.700;2022-08-19T06:14:08;96970.59;;;19.12;69.64
73280;BME280;61511;49.286;9.700;2022-08-19T06:16:44;96973.91;;;19.17;69.61
73280;BME280;61511;49.286;9.700;2022-08-19T06:19:14;96972.19;;;19.21;68.81
73280;BME280;61511;49.286;9.700;2022-08-19T06:21:45;96979.69;;;19.28;69.00
73280;BME280;61511;49.286;9.700;2022-08-19T06:24:17;96980.94;;;19.31;68.79
73280;BME280;61511;49.286;9.700;2022-08-19T06:26:47;96986.00;;;19.32;68.69
73280;BME280;61511;49.286;9.700;2022-08-19T06:29:20;96983.94;;;19.29;68.26
73280;BME280;61511;49.286;9.700;2022-08-19T06:31:53;96985.34;;;19.35;68.82
73280;BME280;61511;49.286;9.700;2022-08-19T06:34:21;96988.31;;;19.34;68.62
73280;BME280;61511;49.286;9.700;2022-08-19T06:36:51;96982.22;;;19.33;69.08
73280;BME280;61511;49.286;9.700;2022-08-19T06:39:21;96982.34;;;19.37;68.40
73280;BME280;61511;49.286;9.700;2022-08-19T06:41:51;96976.34;;;19.40;68.30
73280;BME280;61511;49.286;9.700;2022-08-19T06:44:26;96972.75;;;19.36;68.54
73280;BME280;61511;49.286;9.700;2022-08-19T06:46:58;96962.50;;;19.38;68.29
73280;BME280;61511;49.286;9.700;2022-08-19T06:49:35;96959.03;;;19.46;68.48
73280;BME280;61511;49.286;9.700;2022-08-19T06:52:04;96954.94;;;19.48;68.29
73280;BME280;61511;49.286;9.700;2022-08-19T06:54:32;96958.09;;;19.50;68.00
73280;BME280;61511;49.286;9.700;2022-08-19T06:57:20;96956.03;;;19.47;68.47
73280;BME280;61511;49.286;9.700;2022-08-19T06:59:48;96962.50;;;19.46;68.32
73280;BME280;61511;49.286;9.700;2022-08-19T07:02:18;96953.69;;;19.46;68.21
73280;BME280;61511;49.286;9.700;2022-08-19T07:04:47;96955.88;;;19.52;68.71
73280;BME280;61511;49.286;9.700;2022-08-19T07:07:19;96948.84;;;19.68;68.05
73280;BME280;61511;49.286;9.700;2022-08-19T07:09:50;96953.50;;;19.80;66.80
73280;BME280;61511;49.286;9.700;2022-08-19T07:12:28;96958.66;;;19.94;66.92
73280;BME280;61511;49.286;9.700;2022-08-19T07:14:57;96969.38;;;19.94;66.91
73280;BME280;61511;49.286;9.700;2022-08-19T07:17:28;96977.47;;;19.85;67.76
73280;BME280;61511;49.286;9.700;2022-08-19T07:19:56;96982.16;;;19.88;67.40
73280;BME280;61511;49.286;9.700;2022-08-19T07:22:35;96993.66;;;19.89;67.72
73280;BME280;61511;49.286;9.700;2022-08-19T07:25:04;96999.50;;;19.91;66.96
73280;BME280;61511;49.286;9.700;2022-08-19T07:27:33;96998.19;;;19.97;66.67
73280;BME280;61511;49.286;9.700;2022-08-19T07:30:02;96995.97;;;19.99;66.13
73280;BME280;61511;49.286;9.700;2022-08-19T07:32:32;96998.13;;;20.05;66.15
73280;BME280;61511;49.286;9.700;2022-08-19T07:35:01;96999.22;;;20.13;65.61
73280;BME280;61511;49.286;9.700;2022-08-19T07:37:29;96999.59;;;20.24;65.61
73280;BME280;61511;49.286;9.700;2022-08-19T07:39:59;97000.66;;;20.31;66.30
73280;BME280;61511;49.286;9.700;2022-08-19T07:42:27;96994.34;;;20.36;64.67
73280;BME280;61511;49.286;9.700;2022-08-19T07:44:56;96995.59;;;20.38;65.92
73280;BME280;61511;49.286;9.700;2022-08-19T07:47:24;97001.09;;;20.42;65.34
73280;BME280;61511;49.286;9.700;2022-08-19T07:50:15;97003.00;;;20.41;64.98
73280;BME280;61511;49.286;9.700;2022-08-19T07:52:45;97007.75;;;20.36;64.95
73280;BME280;61511;49.286;9.700;2022-08-19T07:55:18;97012.34;;;20.35;66.32
73280;BME280;61511;49.286;9.700;2022-08-19T07:58:06;97009.72;;;20.47;64.87
73280;BME280;61511;49.286;9.700;2022-08-19T08:00:35;97011.75;;;20.50;64.79
73280;BME280;61511;49.286;9.700;2022-08-19T08:03:03;97012.81;;;20.58;65.48
73280;BME280;61511;49.286;9.700;2022-08-19T08:05:32;97012.91;;;20.62;65.95
73280;BME280;61511;49.286;9.700;2022-08-19T08:08:18;97017.56;;;20.53;64.61
73280;BME280;61511;49.286;9.700;2022-08-19T08:11:10;97027.00;;;20.59;64.55
73280;BME280;61511;49.286;9.700;2022-08-19T08:13:41;97033.47;;;20.58;65.00
73280;BME280;61511;49.286;9.700;2022-08-19T08:16:09;97028.78;;;20.55;66.35
73280;BME280;61511;49.286;9.700;2022-08-19T08:18:40;97026.53;;;20.57;66.95
73280;BME280;61511;49.286;9.700;2022-08-19T08:21:17;97029.22;;;20.57;65.62
73280;BME280;61511;49.286;9.700;2022-08-19T08:23:45;97025.41;;;20.58;65.66
73280;BME280;61511;49.286;9.700;2022-08-19T08:26:14;97028.78;;;20.55;65.23
73280;BME280;61511;49.286;9.700;2022-08-19T08:28:44;97024.00;;;20.60;65.14
73280;BME280;61511;49.286;9.700;2022-08-19T08:31:15;97019.66;;;20.68;65.13
73280;BME280;61511;49.286;9.700;2022-08-19T08:33:43;97012.41;;;20.68;65.41
73280;BME280;61511;49.286;9.700;2022-08-19T08:36:12;97024.19;;;20.76;65.91
73280;BME280;61511;49.286;9.700;2022-08-19T08:38:43;97024.34;;;20.91;63.96
73280;BME280;61511;49.286;9.700;2022-08-19T08:41:18;97023.72;;;20.95;64.09
73280;BME280;61511;49.286;9.700;2022-08-19T08:43:51;97023.09;;;21.10;63.43
73280;BME280;61511;49.286;9.700;2022-08-19T08:46:25;97016.47;;;21.28;64.53
73280;BME280;61511;49.286;9.700;2022-08-19T08:49:02;97016.41;;;21.37;63.54
73280;BME280;61511;49.286;9.700;2022-08-19T08:51:38;97015.63;;;21.48;63.24
73280;BME280;61511;49.286;9.700;2022-08-19T08:54:15;97011.50;;;21.63;62.41
73280;BME280;61511;49.286;9.700;2022-08-19T08:56:46;97017.22;;;21.73;62.20
73280;BME280;61511;49.286;9.700;2022-08-19T08:59:21;97015.31;;;21.86;62.66
73280;BME280;61511;49.286;9.700;2022-08-19T09:01:51;97019.16;;;21.97;61.13
73280;BME280;61511;49.286;9.700;2022-08-19T09:04:19;97019.69;;;21.91;61.07
73280;BME280;61511;49.286;9.700;2022-08-19T09:06:54;97019.38;;;21.92;60.71
73280;BME280;61511;49.286;9.700;2022-08-19T09:09:47;97016.06;;;21.95;60.97
73280;BME280;61511;49.286;9.700;2022-08-19T09:12:23;97010.69;;;21.95;60.57
73280;BME280;61511;49.286;9.700;2022-08-19T09:14:57;97014.69;;;21.89;61.07
73280;BME280;61511;49.286;9.700;2022-08-19T09:17:29;97018.47;;;21.88;60.61
73280;BME280;61511;49.286;9.700;2022-08-19T09:20:05;97023.72;;;21.85;61.56
73280;BME280;61511;49.286;9.700;2022-08-19T09:22:36;97015.47;;;21.90;61.62
73280;BME280;61511;49.286;9.700;2022-08-19T09:25:08;97020.38;;;21.88;62.05
73280;BME280;61511;49.286;9.700;2022-08-19T09:27:38;97026.41;;;21.85;63.93
73280;BME280;61511;49.286;9.700;2022-08-19T09:30:11;97029.09;;;21.85;64.90
73280;BME280;61511;49.286;9.700;2022-08-19T09:32:39;97022.28;;;21.87;65.14
73280;BME280;61511;49.286;9.700;2022-08-19T09:35:09;97028.81;;;21.98;65.29
73280;BME280;61511;49.286;9.700;2022-08-19T09:37:38;97027.34;;;22.13;65.09
73280;BME280;61511;49.286;9.700;2022-08-19T09:40:08;97040.66;;;22.22;64.98
73280;BME280;61511;49.286;9.700;2022-08-19T09:42:38;97035.75;;;22.24;64.82
73280;BME280;61511;49.286;9.700;2022-08-19T09:45:20;97031.47;;;22.35;63.42
73280;BME280;61511;49.286;9.700;2022-08-19T09:47:50;97034.25;;;22.38;64.09
73280;BME280;61511;49.286;9.700;2022-08-19T09:50:21;97030.53;;;22.55;63.54
73280;BME280;61511;49.286;9.700;2022-08-19T09:52:50;97029.41;;;22.56;63.41
73280;BME280;61511;49.286;9.700;2022-08-19T09:55:25;97034.34;;;22.54;63.25
73280;BME280;61511;49.286;9.700;2022-08-19T09:57:59;97032.56;;;22.58;61.59
73280;BME280;61511;49.286;9.700;2022-08-19T10:00:27;97029.06;;;22.82;61.67
73280;BME280;61511;49.286;9.700;2022-08-19T10:02:56;97027.28;;;23.02;60.91
73280;BME280;61511;49.286;9.700;2022-08-19T10:05:24;97026.22;;;23.46;60.23
73280;BME280;61511;49.286;9.700;2022-08-19T10:08:16;97026.22;;;23.93;57.71
73280;BME280;61511;49.286;9.700;2022-08-19T10:10:48;97027.88;;;23.98;57.05
73280;BME280;61511;49.286;9.700;2022-08-19T10:13:18;97028.72;;;24.02;58.13
73280;BME280;61511;49.286;9.700;2022-08-19T10:15:48;97013.63;;;23.82;57.04
73280;BME280;61511;49.286;9.700;2022-08-19T10:18:19;97031.00;;;23.53;58.43
73280;BME280;61511;49.286;9.700;2022-08-19T10:20:48;97032.38;;;23.19;60.38
73280;BME280;61511;49.286;9.700;2022-08-19T10:23:20;97036.00;;;23.11;60.46
73280;BME280;61511;49.286;9.700;2022-08-19T10:25:49;97033.25;;;22.95;61.27
73280;BME280;61511;49.286;9.700;2022-08-19T10:28:20;97033.97;;;22.68;61.50
73280;BME280;61511;49.286;9.700;2022-08-19T10:30:49;97026.94;;;22.63;61.91
73280;BME280;61511;49.286;9.700;2022-08-19T10:33:17;97023.47;;;22.63;60.64
73280;BME280;61511;49.286;9.700;2022-08-19T10:36:07;97022.22;;;22.60;62.14
73280;BME280;61511;49.286;9.700;2022-08-19T10:38:36;97016.75;;;22.57;60.50
73280;BME280;61511;49.286;9.700;2022-08-19T10:41:22;97020.94;;;22.42;60.88
73280;BME280;61511;49.286;9.700;2022-08-19T10:43:51;97020.81;;;22.26;60.92
73280;BME280;61511;49.286;9.700;2022-08-19T10:46:22;97022.41;;;22.15;61.17
73280;BME280;61511;49.286;9.700;2022-08-19T10:48:51;97018.94;;;22.02;62.41
73280;BME280;61511;49.286;9.700;2022-08-19T10:51:20;97014.91;;;21.96;62.80
73280;BME280;61511;49.286;9.700;2022-08-19T10:54:14;97015.09;;;21.91;64.33
73280;BME280;61511;49.286;9.700;2022-08-19T10:56:59;97014.31;;;21.79;63.96
73280;BME280;61511;49.286;9.700;2022-08-19T10:59:28;97007.81;;;21.67;63.40
73280;BME280;61511;49.286;9.700;2022-08-19T11:02:03;97001.44;;;21.60;62.11
73280;BME280;61511;49.286;9.700;2022-08-19T11:04:31;97005.66;;;21.61;61.80
73280;BME280;61511;49.286;9.700;2022-08-19T11:07:01;97001.66;;;21.67;62.12
73280;BME280;61511;49.286;9.700;2022-08-19T11:09:30;97009.72;;;21.67;61.87
73280;BME280;61511;49.286;9.700;2022-08-19T11:12:01;97009.63;;;21.76;60.54
73280;BME280;61511;49.286;9.700;2022-08-19T11:14:31;97007.28;;;21.86;60.96
73280;BME280;61511;49.286;9.700;2022-08-19T11:17:01;97004.50;;;21.95;59.62
73280;BME280;61511;49.286;9.700;2022-08-19T11:19:29;97008.88;;;21.99;58.83
73280;BME280;61511;49.286;9.700;2022-08-19T11:21:57;97007.06;;;22.03;59.20
73280;BME280;61511;49.286;9.700;2022-08-19T11:24:26;97017.38;;;22.13;59.21
73280;BME280;61511;49.286;9.700;2022-08-19T11:27:02;97015.22;;;22.19;58.32
73280;BME280;61511;49.286;9.700;2022-08-19T11:29:32;97015.81;;;22.25;57.89
73280;BME280;61511;49.286;9.700;2022-08-19T11:32:04;97010.53;;;22.28;58.29
73280;BME280;61511;49.286;9.700;2022-08-19T11:34:32;97015.34;;;22.35;57.94
73280;BME280;61511;49.286;9.700;2022-08-19T11:37:02;97013.78;;;22.34;57.32
73280;BME280;61511;49.286;9.700;2022-08-19T11:39:33;97009.28;;;22.38;57.70
73280;BME280;61511;49.286;9.700;2022-08-19T11:42:04;97009.41;;;22.41;57.25
73280;BME280;61511;49.286;9.700;2022-08-19T11:44:54;97007.34;;;22.50;57.48
73280;BME280;61511;49.286;9.700;2022-08-19T11:47:22;97011.66;;;22.67;56.23
73280;BME280;61511;49.286;9.700;2022-08-19T11:49:50;97015.94;;;22.68;55.61
73280;BME280;61511;49.286;9.700;2022-08-19T11:52:19;97010.00;;;22.75;54.88
73280;BME280;61511;49.286;9.700;2022-08-19T11:54:47;97021.31;;;22.80;53.59
73280;BME280;61511;49.286;9.700;2022-08-19T11:57:17;97021.84;;;22.86;54.50
73280;BME280;61511;49.286;9.700;2022-08-19T11:59:49;97010.59;;;22.96;53.49
73280;BME280;61511;49.286;9.700;2022-08-19T12:02:18;97011.25;;;23.05;53.24
73280;BME280;61511;49.286;9.700;2022-08-19T12:04:46;97006.91;;;23.16;53.61
73280;BME280;61511;49.286;9.700;2022-08-19T12:07:14;97013.03;;;23.29;53.33
73280;BME280;61511;49.286;9.700;2022-08-19T12:09:42;97017.97;;;23.27;53.24
73280;BME280;61511;49.286;9.700;2022-08-19T12:12:11;97017.78;;;23.20;53.28
73280;BME280;61511;49.286;9.700;2022-08-19T12:14:40;97013.50;;;23.19;54.03
73280;BME280;61511;49.286;9.700;2022-08-19T12:17:08;97003.25;;;23.09;53.43
73280;BME280;61511;49.286;9.700;2022-08-19T12:19:39;97011.91;;;23.02;53.25
73280;BME280;61511;49.286;9.700;2022-08-19T12:22:07;97015.38;;;23.03;53.59
73280;BME280;61511;49.286;9.700;2022-08-19T12:24:35;97010.13;;;23.06;53.55
73280;BME280;61511;49.286;9.700;2022-08-19T12:27:03;97013.69;;;23.10;53.32
73280;BME280;61511;49.286;9.700;2022-08-19T12:29:38;97016.91;;;23.16;53.60
73280;BME280;61511;49.286;9.700;2022-08-19T12:32:08;97024.78;;;23.09;52.57
73280;BME280;61511;49.286;9.700;2022-08-19T12:34:38;97028.34;;;23.13;51.85
73280;BME280;61511;49.286;9.700;2022-08-19T12:37:06;97022.28;;;23.16;52.74
73280;BME280;61511;49.286;9.700;2022-08-19T12:39:37;97024.41;;;23.22;50.52
73280;BME280;61511;49.286;9.700;2022-08-19T12:42:05;97017.53;;;23.25;51.08
73280;BME280;61511;49.286;9.700;2022-08-19T12:44:35;97013.25;;;23.24;51.11
73280;BME280;61511;49.286;9.700;2022-08-19T12:47:03;97023.56;;;23.34;51.42
73280;BME280;61511;49.286;9.700;2022-08-19T12:49:37;97026.66;;;23.36;50.06
73280;BME280;61511;49.286;9.700;2022-08-19T12:52:22;97017.13;;;23.39;50.44
73280;BME280;61511;49.286;9.700;2022-08-19T12:54:51;97008.00;;;23.43;50.60
73280;BME280;61511;49.286;9.700;2022-08-19T12:57:21;97012.03;;;23.49;50.16
73280;BME280;61511;49.286;9.700;2022-08-19T13:00:00;97017.28;;;23.58;49.39
73280;BME280;61511;49.286;9.700;2022-08-19T13:02:31;97008.22;;;23.66;48.92
73280;BME280;61511;49.286;9.700;2022-08-19T13:05:08;97015.19;;;23.67;49.32
73280;BME280;61511;49.286;9.700;2022-08-19T13:07:39;97006.22;;;23.63;48.94
73280;BME280;61511;49.286;9.700;2022-08-19T13:10:09;97008.47;;;23.77;48.86
73280;BME280;61511;49.286;9.700;2022-08-19T13:12:39;97011.97;;;23.93;48.60
73280;BME280;61511;49.286;9.700;2022-08-19T13:15:09;97018.72;;;24.18;48.16
73280;BME280;61511;49.286;9.700;2022-08-19T13:17:38;97010.41;;;24.42;46.40
73280;BME280;61511;49.286;9.700;2022-08-19T13:20:09;97015.69;;;24.54;46.24
73280;BME280;61511;49.286;9.700;2022-08-19T13:22:38;97017.75;;;24.61;45.73